createdAt,value
2018-06-30T00:00:44.660Z,61.94
2018-06-30T00:01:44.549Z,63.18
2018-06-30T00:02:44.566Z,62.56
2018-06-30T00:03:44.514Z,62.91
2018-06-30T00:04:44.529Z,63.42
2018-06-30T00:05:44.531Z,64.16
2018-06-30T00:06:44.644Z,63.79
2018-06-30T00:07:44.687Z,62.89
2018-06-30T00:08:44.515Z,63.18
2018-06-30T00:09:44.519Z,62.33
2018-06-30T00:10:44.505Z,62.31
2018-06-30T00:11:44.497Z,63.09
2018-06-30T00:12:44.678Z,63.12
2018-06-30T00:13:44.481Z,62.62
2018-06-30T00:14:44.514Z,62.43
2018-06-30T00:15:44.499Z,62.5
2018-06-30T00:16:44.501Z,63.67
2018-06-30T00:17:44.640Z,64.05
2018-06-30T00:18:44.497Z,63.44
2018-06-30T00:19:44.503Z,62.78
2018-06-30T00:20:44.495Z,63.46
2018-06-30T00:21:44.500Z,62.93
2018-06-30T00:22:44.480Z,62.69
2018-06-30T00:23:44.489Z,64.22
2018-06-30T00:24:44.481Z,64.36
2018-06-30T00:25:44.502Z,64.03
2018-06-30T00:26:44.481Z,63.73
2018-06-30T00:27:44.475Z,63.64
2018-06-30T00:28:44.486Z,63.18
2018-06-30T00:29:44.488Z,62.92
2018-06-30T00:30:44.504Z,64.29
2018-06-30T00:31:44.488Z,64.98
2018-06-30T00:32:44.499Z,64.16
2018-06-30T00:33:44.537Z,64.67
2018-06-30T00:34:44.622Z,64.08
2018-06-30T00:35:44.514Z,63.8
2018-06-30T00:36:44.506Z,65.06
2018-06-30T00:37:44.483Z,65
2018-06-30T00:38:44.480Z,64.79
2018-06-30T00:39:44.496Z,63.99
2018-06-30T00:40:44.505Z,64.71
2018-06-30T00:41:44.506Z,65.24
2018-06-30T00:42:44.565Z,65.78
2018-06-30T00:43:44.521Z,65.46
2018-06-30T00:44:44.528Z,65.22
2018-06-30T00:45:44.535Z,64.69
2018-06-30T00:46:44.509Z,65.9
2018-06-30T00:47:44.544Z,66.8
2018-06-30T00:48:44.540Z,66.64
2018-06-30T00:49:44.507Z,67.01
2018-06-30T00:50:44.704Z,66.81
2018-06-30T00:51:44.489Z,66.56
2018-06-30T00:52:44.515Z,65.41
2018-06-30T00:53:44.656Z,66.91
2018-06-30T00:54:44.490Z,66.59
2018-06-30T00:55:44.536Z,66.93
2018-06-30T00:56:44.514Z,65.55
2018-06-30T00:57:44.488Z,66.88
2018-06-30T00:58:44.484Z,66.67
2018-06-30T00:59:44.482Z,67.01
2018-06-30T01:00:44.541Z,66.75
2018-06-30T01:01:44.494Z,67.16
2018-06-30T01:02:44.545Z,67.52
2018-06-30T01:03:44.513Z,66.65
2018-06-30T01:04:44.476Z,65.97
2018-06-30T01:05:44.484Z,67.15
2018-06-30T01:06:44.745Z,67.07
2018-06-30T01:07:44.493Z,66.56
2018-06-30T01:08:44.507Z,66.93
2018-06-30T01:09:44.493Z,67.07
2018-06-30T01:10:44.508Z,67.36
2018-06-30T01:11:44.520Z,67.13
2018-06-30T01:12:44.572Z,66.72
2018-06-30T01:13:44.709Z,67.36
2018-06-30T01:14:44.531Z,67.62
2018-06-30T01:15:44.491Z,67.64
2018-06-30T01:16:44.576Z,68.07
2018-06-30T01:17:44.524Z,68.1
2018-06-30T01:18:44.507Z,68.28
2018-06-30T01:19:44.613Z,68.62
2018-06-30T01:20:44.977Z,67.77
2018-06-30T01:21:44.509Z,68.23
2018-06-30T01:22:44.495Z,67
2018-06-30T01:23:44.495Z,67.41
2018-06-30T01:24:44.484Z,67.82
2018-06-30T01:25:44.483Z,67.54
2018-06-30T01:26:44.496Z,66.8
2018-06-30T01:27:44.477Z,66.59
2018-06-30T01:28:44.473Z,67.42
2018-06-30T01:29:44.485Z,66.87
2018-06-30T01:30:44.494Z,67.99
2018-06-30T01:31:44.505Z,67.79
2018-06-30T01:32:44.460Z,66.72
2018-06-30T01:33:44.463Z,66.65
2018-06-30T01:34:44.467Z,67.02
2018-06-30T01:35:44.478Z,67.33
2018-06-30T01:36:44.479Z,67.63
2018-06-30T01:37:44.462Z,67.48
2018-06-30T01:38:44.469Z,67.41
2018-06-30T01:39:44.478Z,67.79
2018-06-30T01:40:44.475Z,67.6
2018-06-30T01:41:44.481Z,67.57
2018-06-30T01:42:44.491Z,67.24
2018-06-30T01:43:44.500Z,67.72
2018-06-30T01:44:44.493Z,68.13
2018-06-30T01:45:44.500Z,67.96
2018-06-30T01:46:44.482Z,67.89
2018-06-30T01:47:44.512Z,68.65
2018-06-30T01:48:44.496Z,68.23
2018-06-30T01:49:44.567Z,67.94
2018-06-30T01:50:44.561Z,67.03
2018-06-30T01:51:44.477Z,68.15
2018-06-30T01:52:44.817Z,68.43
2018-06-30T01:53:44.493Z,68.23
2018-06-30T01:54:44.909Z,68.29
2018-06-30T01:55:44.545Z,68.58
2018-06-30T01:56:44.590Z,69.27
2018-06-30T01:57:44.497Z,68.49
2018-06-30T01:58:44.541Z,69
2018-06-30T01:59:44.472Z,69.65
2018-06-30T02:00:44.481Z,69.32
2018-06-30T02:01:44.654Z,69.16
2018-06-30T02:02:44.506Z,69.16
2018-06-30T02:03:44.667Z,68.75
2018-06-30T02:04:44.531Z,68.45
2018-06-30T02:05:44.447Z,68.53
2018-06-30T02:06:44.483Z,68.37
2018-06-30T02:07:44.536Z,68.03
2018-06-30T02:08:44.533Z,68.39
2018-06-30T02:09:44.478Z,68.08
2018-06-30T02:10:44.476Z,68.83
2018-06-30T02:11:44.511Z,68.59
2018-06-30T02:12:44.481Z,68.48
2018-06-30T02:13:44.489Z,69.01
2018-06-30T02:14:44.496Z,68.48
2018-06-30T02:15:44.464Z,68.46
2018-06-30T02:16:44.576Z,68.21
2018-06-30T02:17:44.470Z,67.87
2018-06-30T02:18:44.470Z,68.26
2018-06-30T02:19:44.541Z,67.72
2018-06-30T02:20:44.486Z,67.29
2018-06-30T02:21:44.517Z,68.17
2018-06-30T02:22:44.507Z,68.59
2018-06-30T02:23:44.475Z,68.58
2018-06-30T02:24:44.478Z,68.01
2018-06-30T02:25:44.535Z,68.82
2018-06-30T02:26:44.571Z,68.47
2018-06-30T02:27:44.565Z,68.42
2018-06-30T02:28:44.485Z,67.89
2018-06-30T02:29:44.497Z,68.46
2018-06-30T02:30:44.453Z,68.9
2018-06-30T02:31:44.470Z,68.69
2018-06-30T02:32:44.633Z,68.26
2018-06-30T02:33:44.530Z,68.49
2018-06-30T02:34:44.483Z,68.05
2018-06-30T02:35:44.519Z,68.78
2018-06-30T02:36:44.540Z,68.84
2018-06-30T02:37:44.494Z,68.47
2018-06-30T02:38:44.493Z,68.45
2018-06-30T02:39:44.464Z,68.55
2018-06-30T02:40:44.528Z,68.92
2018-06-30T02:41:44.480Z,68.49
2018-06-30T02:42:44.445Z,69.11
2018-06-30T02:43:44.481Z,69.06
2018-06-30T02:44:44.447Z,68.96
2018-06-30T02:45:44.460Z,69.47
2018-06-30T02:46:44.460Z,68.92
2018-06-30T02:47:44.440Z,68.86
2018-06-30T02:48:44.466Z,68.39
2018-06-30T02:49:44.466Z,69.07
2018-06-30T02:50:44.493Z,69.15
2018-06-30T02:51:44.642Z,69.68
2018-06-30T02:52:44.468Z,69.86
2018-06-30T02:53:44.500Z,69.64
2018-06-30T02:54:44.472Z,70.17
2018-06-30T02:55:44.479Z,70.4
2018-06-30T02:56:44.466Z,70.27
2018-06-30T02:57:44.467Z,69.44
2018-06-30T02:58:44.676Z,69.48
2018-06-30T02:59:44.465Z,70.27
2018-06-30T03:00:44.441Z,70.11
2018-06-30T03:01:44.459Z,69.83
2018-06-30T03:02:44.470Z,70.03
2018-06-30T03:03:44.490Z,70.01
2018-06-30T03:04:44.474Z,70.31
2018-06-30T03:05:44.495Z,70.1
2018-06-30T03:06:44.473Z,69.29
2018-06-30T03:07:44.518Z,70.66
2018-06-30T03:08:44.473Z,70.19
2018-06-30T03:09:44.474Z,70.46
2018-06-30T03:10:44.457Z,69.27
2018-06-30T03:11:44.479Z,69.48
2018-06-30T03:12:44.481Z,70.67
2018-06-30T03:13:44.488Z,70.4
2018-06-30T03:14:44.449Z,70.54
2018-06-30T03:15:44.452Z,70.3
2018-06-30T03:16:44.469Z,70.34
2018-06-30T03:17:44.644Z,71.08
2018-06-30T03:18:44.651Z,70.93
2018-06-30T03:19:44.483Z,70.58
2018-06-30T03:20:44.503Z,70.68
2018-06-30T03:21:44.503Z,70.31
2018-06-30T03:22:44.450Z,70.08
2018-06-30T03:23:44.476Z,70.91
2018-06-30T03:24:44.471Z,71.13
2018-06-30T03:25:44.504Z,71.42
2018-06-30T03:26:44.594Z,71.5
2018-06-30T03:27:44.613Z,71.25
2018-06-30T03:28:44.541Z,70.56
2018-06-30T03:29:44.459Z,70.28
2018-06-30T03:30:44.465Z,70.18
2018-06-30T03:31:44.674Z,71.25
2018-06-30T03:32:44.469Z,70.88
2018-06-30T03:33:44.435Z,70.54
2018-06-30T03:34:44.489Z,70.55
2018-06-30T03:35:44.608Z,70.31
2018-06-30T03:36:44.464Z,70.95
2018-06-30T03:37:44.516Z,71.06
2018-06-30T03:38:44.433Z,71.42
2018-06-30T03:39:44.482Z,71.27
2018-06-30T03:40:44.529Z,71.05
2018-06-30T03:41:44.906Z,70.55
2018-06-30T03:42:44.440Z,70.38
2018-06-30T03:43:44.444Z,70.57
2018-06-30T03:44:44.440Z,70.55
2018-06-30T03:45:44.462Z,69.73
2018-06-30T03:46:44.455Z,69.81
2018-06-30T03:47:44.445Z,70.05
2018-06-30T03:48:44.450Z,69.83
2018-06-30T03:49:44.437Z,70.82
2018-06-30T03:50:44.438Z,70.67
2018-06-30T03:51:44.452Z,70.77
2018-06-30T03:52:44.468Z,71.16
2018-06-30T03:53:44.425Z,71.48
2018-06-30T03:54:44.420Z,71.1
2018-06-30T03:55:44.439Z,71.05
2018-06-30T03:56:44.430Z,71.12
2018-06-30T03:57:44.469Z,70.24
2018-06-30T03:58:44.422Z,70.54
2018-06-30T03:59:44.430Z,70.38
2018-06-30T04:00:44.528Z,71.04
2018-06-30T04:01:44.440Z,71.07
2018-06-30T04:02:44.470Z,70.49
2018-06-30T04:03:44.930Z,71.3
2018-06-30T04:04:44.453Z,71.04
2018-06-30T04:05:44.470Z,71.06
2018-06-30T04:06:44.424Z,71.22
2018-06-30T04:07:44.478Z,70.76
2018-06-30T04:08:44.469Z,71.69
2018-06-30T04:09:44.439Z,71.53
2018-06-30T04:10:44.482Z,71.53
2018-06-30T04:11:44.431Z,72.01
2018-06-30T04:12:44.446Z,72.16
2018-06-30T04:13:44.939Z,71.33
2018-06-30T04:14:44.598Z,70.8
2018-06-30T04:15:44.576Z,71.7
2018-06-30T04:16:44.443Z,71.31
2018-06-30T04:17:44.642Z,71.31
2018-06-30T04:18:44.479Z,71.9
2018-06-30T04:19:44.452Z,71.58
2018-06-30T04:20:44.466Z,71.94
2018-06-30T04:21:44.410Z,71.75
2018-06-30T04:22:44.581Z,72.18
2018-06-30T04:23:44.420Z,71.22
2018-06-30T04:24:44.487Z,70.91
2018-06-30T04:25:44.896Z,70.96
2018-06-30T04:26:44.488Z,71.41
2018-06-30T04:27:44.420Z,72.17
2018-06-30T04:28:44.423Z,71.82
2018-06-30T04:29:44.443Z,72.24
2018-06-30T04:30:44.448Z,71.44
2018-06-30T04:31:44.485Z,70.96
2018-06-30T04:32:44.420Z,71.62
2018-06-30T04:33:44.458Z,71.93
2018-06-30T04:34:44.551Z,71.67
2018-06-30T04:35:44.471Z,71.21
2018-06-30T04:36:44.443Z,70.83
2018-06-30T04:37:44.410Z,70.78
2018-06-30T04:38:44.420Z,70.62
2018-06-30T04:39:44.429Z,71.39
2018-06-30T04:40:44.407Z,71.71
2018-06-30T04:41:44.430Z,71.38
2018-06-30T04:42:44.458Z,71.53
2018-06-30T04:43:44.468Z,70.91
2018-06-30T04:44:44.422Z,70.83
2018-06-30T04:45:44.419Z,72.26
2018-06-30T04:46:44.439Z,71.79
2018-06-30T04:47:44.503Z,71.55
2018-06-30T04:48:44.489Z,71.84
2018-06-30T04:49:44.560Z,72
2018-06-30T04:50:44.421Z,72.16
2018-06-30T04:51:44.413Z,72.36
2018-06-30T04:52:44.415Z,72.06
2018-06-30T04:53:44.404Z,71.92
2018-06-30T04:54:44.412Z,71.73
2018-06-30T04:55:44.429Z,71.17
2018-06-30T04:56:44.463Z,71.01
2018-06-30T04:57:44.434Z,70.92
2018-06-30T04:58:44.412Z,70.63
2018-06-30T04:59:44.447Z,71.1
2018-06-30T05:00:44.425Z,70.63
2018-06-30T05:01:44.462Z,70.29
2018-06-30T05:02:44.490Z,70.66
2018-06-30T05:03:44.441Z,70.67
2018-06-30T05:04:44.405Z,69.92
2018-06-30T05:05:44.414Z,69.68
2018-06-30T05:06:44.418Z,69.98
2018-06-30T05:07:44.461Z,69.92
2018-06-30T05:08:44.478Z,69.58
2018-06-30T05:09:44.411Z,69.23
2018-06-30T05:10:44.416Z,69.65
2018-06-30T05:11:44.446Z,68.98
2018-06-30T05:12:44.456Z,68.73
2018-06-30T05:13:44.499Z,67.08
2018-06-30T05:14:44.442Z,66.39
2018-06-30T05:15:44.408Z,66.07
2018-06-30T05:16:44.442Z,65.96
2018-06-30T05:17:45.509Z,65.26
2018-06-30T05:18:44.469Z,65.81
2018-06-30T05:19:44.468Z,65.19
2018-06-30T05:20:44.406Z,64.83
2018-06-30T05:21:44.458Z,64.74
2018-06-30T05:22:44.431Z,64.79
2018-06-30T05:23:44.424Z,65.12
2018-06-30T05:24:44.551Z,65.23
2018-06-30T05:25:44.413Z,64.7
2018-06-30T05:26:44.399Z,64.75
2018-06-30T05:27:44.435Z,64.87
2018-06-30T05:28:44.436Z,64.83
2018-06-30T05:29:44.506Z,64.88
2018-06-30T05:30:44.436Z,65.19
2018-06-30T05:31:44.394Z,64.87
2018-06-30T05:32:44.408Z,63.21
2018-06-30T05:33:44.619Z,63.15
2018-06-30T05:34:44.406Z,63.41
2018-06-30T05:35:44.414Z,62.64
2018-06-30T05:36:44.431Z,62.2
2018-06-30T05:37:44.544Z,62.1
2018-06-30T05:38:44.400Z,62.12
2018-06-30T05:39:44.433Z,62.09
2018-06-30T05:40:44.472Z,62.37
2018-06-30T05:41:45.590Z,62.31
2018-06-30T05:42:44.461Z,62.45
2018-06-30T05:43:44.542Z,62.06
2018-06-30T05:44:44.407Z,62.37
2018-06-30T05:45:44.470Z,62.46
2018-06-30T05:46:44.427Z,62.68
2018-06-30T05:47:44.398Z,62.84
2018-06-30T05:48:44.390Z,62.88
2018-06-30T05:49:44.404Z,62.68
2018-06-30T05:50:44.389Z,62.54
2018-06-30T05:51:44.553Z,63.08
2018-06-30T05:52:44.386Z,62.71
2018-06-30T05:53:44.432Z,62.03
2018-06-30T05:54:44.435Z,61.25
2018-06-30T05:55:44.398Z,61.67
2018-06-30T05:56:44.401Z,61.89
2018-06-30T05:57:44.470Z,62.05
2018-06-30T05:58:44.421Z,61.93
2018-06-30T05:59:44.402Z,62.15
2018-06-30T06:00:44.381Z,62.01
2018-06-30T06:01:44.485Z,61.79
2018-06-30T06:02:44.404Z,61.79
2018-06-30T06:03:44.476Z,61.97
2018-06-30T06:04:44.400Z,62.24
2018-06-30T06:05:44.379Z,61.93
2018-06-30T06:06:44.396Z,62.23
2018-06-30T06:07:44.398Z,62.01
2018-06-30T06:08:44.398Z,61.83
2018-06-30T06:09:44.460Z,61.86
2018-06-30T06:10:44.436Z,61.64
2018-06-30T06:11:44.422Z,61.76
2018-06-30T06:12:44.408Z,61.75
2018-06-30T06:13:44.409Z,61.18
2018-06-30T06:14:44.436Z,61.47
2018-06-30T06:15:44.406Z,61.47
2018-06-30T06:16:44.428Z,61.47
2018-06-30T06:17:44.593Z,61.28
2018-06-30T06:18:44.408Z,61.19
2018-06-30T06:19:44.529Z,60.84
2018-06-30T06:20:44.418Z,60.14
2018-06-30T06:21:44.444Z,60.35
2018-06-30T06:22:44.544Z,60.35
2018-06-30T06:23:44.428Z,59.91
2018-06-30T06:24:44.472Z,60.3
2018-06-30T06:25:44.427Z,60.55
2018-06-30T06:26:44.465Z,60.67
2018-06-30T06:27:44.483Z,60.64
2018-06-30T06:28:44.574Z,61.02
2018-06-30T06:29:44.513Z,60.51
2018-06-30T06:30:44.486Z,60.14
2018-06-30T06:31:44.542Z,60.21
2018-06-30T06:32:44.582Z,59.8
2018-06-30T06:33:45.118Z,59.81
2018-06-30T06:34:45.090Z,59.88
2018-06-30T06:35:45.165Z,59.97
2018-06-30T06:36:45.364Z,59.48
2018-06-30T06:37:45.167Z,59.99
2018-06-30T06:38:45.128Z,59.89
2018-06-30T06:39:45.394Z,60.01
2018-06-30T06:40:45.137Z,60.44
2018-06-30T06:41:44.921Z,60.35
2018-06-30T06:42:45.204Z,60.51
2018-06-30T06:43:44.541Z,60.68
2018-06-30T06:44:45.152Z,60.66
2018-06-30T06:45:45.113Z,60.68
2018-06-30T06:46:45.163Z,60.67
2018-06-30T06:47:45.169Z,60.16
2018-06-30T06:48:45.129Z,58.95
2018-06-30T06:49:44.480Z,58.99
2018-06-30T06:50:45.105Z,58.9
2018-06-30T06:51:45.109Z,58.22
2018-06-30T06:52:45.223Z,58.29
2018-06-30T06:53:45.157Z,58.76
2018-06-30T06:54:45.131Z,58.46
2018-06-30T06:55:45.150Z,58.63
2018-06-30T06:56:44.450Z,57.8
2018-06-30T06:57:45.192Z,57.73
2018-06-30T06:58:45.131Z,57.8
2018-06-30T06:59:44.474Z,57.79
2018-06-30T07:00:45.198Z,57.97
2018-06-30T07:01:45.178Z,58.09
2018-06-30T07:02:44.549Z,58.19
2018-06-30T07:03:44.390Z,60.01
2018-06-30T07:04:44.410Z,59.45
2018-06-30T07:05:44.397Z,58.83
2018-06-30T07:06:44.530Z,57.23
2018-06-30T07:07:44.388Z,57.59
2018-06-30T07:08:44.358Z,57.45
2018-06-30T07:09:44.360Z,57.57
2018-06-30T07:10:44.358Z,56.7
2018-06-30T07:11:44.365Z,56.6
2018-06-30T07:12:44.350Z,56.25
2018-06-30T07:13:44.357Z,56.31
2018-06-30T07:14:44.351Z,55.76
2018-06-30T07:15:44.366Z,55.76
2018-06-30T07:16:44.370Z,55.6
2018-06-30T07:17:44.378Z,55.36
2018-06-30T07:18:44.376Z,54.5
2018-06-30T07:19:44.383Z,54.89
2018-06-30T07:20:44.398Z,54.9
2018-06-30T07:21:44.416Z,55.02
2018-06-30T07:22:44.406Z,54.96
2018-06-30T07:23:44.365Z,55.16
2018-06-30T07:24:44.360Z,54.75
2018-06-30T07:25:44.361Z,54.35
2018-06-30T07:26:44.432Z,54.41
2018-06-30T07:27:44.500Z,54.49
2018-06-30T07:28:44.584Z,54.58
2018-06-30T07:29:44.544Z,54.9
2018-06-30T07:30:44.402Z,55.4
2018-06-30T07:31:44.462Z,54.58
2018-06-30T07:32:44.368Z,54.69
2018-06-30T07:33:46.112Z,54.78
2018-06-30T07:34:44.363Z,54.22
2018-06-30T07:35:44.371Z,53.92
2018-06-30T07:36:44.347Z,53.97
2018-06-30T07:37:44.508Z,53.72
2018-06-30T07:38:44.512Z,54.09
2018-06-30T07:39:44.484Z,54.19
2018-06-30T07:40:44.337Z,53.73
2018-06-30T07:41:44.387Z,53.68
2018-06-30T07:42:44.381Z,53.6
2018-06-30T07:43:44.440Z,53.67
2018-06-30T07:44:45.074Z,54.19
2018-06-30T07:45:44.383Z,53.62
2018-06-30T07:46:44.379Z,53.6
2018-06-30T07:47:44.583Z,53.34
2018-06-30T07:48:44.419Z,53.79
2018-06-30T07:49:44.411Z,53.75
2018-06-30T07:50:44.389Z,53.59
2018-06-30T07:51:44.408Z,53.27
2018-06-30T07:52:44.359Z,53.1
2018-06-30T07:53:44.355Z,53.41
2018-06-30T07:54:44.361Z,53.81
2018-06-30T07:55:44.362Z,53.49
2018-06-30T07:56:44.397Z,54.06
2018-06-30T07:57:44.381Z,53.44
2018-06-30T07:58:44.410Z,53.63
2018-06-30T07:59:44.415Z,53.52
2018-06-30T08:00:44.395Z,53.85
2018-06-30T08:01:44.384Z,53.44
2018-06-30T08:02:44.370Z,52.99
2018-06-30T08:03:44.417Z,51.41
2018-06-30T08:04:44.576Z,50.97
2018-06-30T08:05:44.397Z,51.11
2018-06-30T08:06:44.370Z,51.73
2018-06-30T08:07:44.363Z,51.29
2018-06-30T08:08:44.381Z,51.2
2018-06-30T08:09:44.370Z,51.18
2018-06-30T08:10:44.530Z,50.72
2018-06-30T08:11:44.367Z,51.49
2018-06-30T08:12:44.411Z,51.36
2018-06-30T08:13:44.419Z,51.36
2018-06-30T08:14:44.374Z,51.33
2018-06-30T08:15:44.414Z,50.87
2018-06-30T08:16:44.490Z,50.92
2018-06-30T08:17:44.506Z,51.17
2018-06-30T08:18:44.384Z,50.1
2018-06-30T08:19:44.476Z,50.77
2018-06-30T08:20:44.377Z,50.35
2018-06-30T08:21:44.431Z,50.28
2018-06-30T08:22:44.419Z,49.9
2018-06-30T08:23:44.375Z,49.64
2018-06-30T08:24:44.369Z,50.24
2018-06-30T08:25:44.379Z,49.81
2018-06-30T08:26:44.395Z,49.18
2018-06-30T08:27:44.398Z,49.61
2018-06-30T08:28:44.384Z,49.65
2018-06-30T08:29:44.440Z,50.16
2018-06-30T08:30:44.446Z,49.93
2018-06-30T08:31:44.407Z,50.44
2018-06-30T08:32:44.385Z,50.48
2018-06-30T08:33:44.659Z,50.09
2018-06-30T08:34:44.416Z,50.11
2018-06-30T08:35:44.404Z,50.06
2018-06-30T08:36:44.440Z,49.9
2018-06-30T08:37:44.495Z,49.87
2018-06-30T08:38:44.391Z,49.59
2018-06-30T08:39:44.415Z,49.62
2018-06-30T08:40:44.447Z,49.49
2018-06-30T08:41:44.433Z,48.62
2018-06-30T08:42:44.394Z,48.56
2018-06-30T08:43:44.462Z,48.86
2018-06-30T08:44:44.508Z,49.09
2018-06-30T08:45:44.398Z,48.97
2018-06-30T08:46:44.493Z,49.07
2018-06-30T08:47:44.490Z,48.67
2018-06-30T08:48:44.446Z,48.1
2018-06-30T08:49:44.532Z,48.62
2018-06-30T08:50:44.463Z,48.65
2018-06-30T08:51:44.477Z,48.88
2018-06-30T08:52:44.491Z,48.77
2018-06-30T08:53:44.620Z,47.84
2018-06-30T08:54:44.513Z,48.64
2018-06-30T08:55:44.741Z,48.5
2018-06-30T08:56:44.541Z,49.19
2018-06-30T08:57:44.565Z,47.66
2018-06-30T08:58:44.544Z,47.44
2018-06-30T08:59:44.639Z,47.41
2018-06-30T09:00:44.568Z,48.41
2018-06-30T09:01:44.524Z,48
2018-06-30T09:02:44.523Z,47.85
2018-06-30T09:03:45.557Z,48.18
2018-06-30T09:04:44.600Z,47.14
2018-06-30T09:05:44.573Z,47.07
2018-06-30T09:06:44.652Z,47.14
2018-06-30T09:07:44.655Z,47.12
2018-06-30T09:08:44.598Z,46.59
2018-06-30T09:09:44.479Z,46.1
2018-06-30T09:10:44.500Z,46.49
2018-06-30T09:11:44.438Z,46.37
2018-06-30T09:12:44.494Z,46.28
2018-06-30T09:13:44.494Z,45.91
2018-06-30T09:14:44.509Z,46.64
2018-06-30T09:15:44.512Z,46.29
2018-06-30T09:16:44.487Z,45.78
2018-06-30T09:18:15.322Z,45.78
2018-06-30T09:18:44.505Z,46.28
2018-06-30T09:19:44.484Z,46.15
2018-06-30T09:20:44.506Z,45.5
2018-06-30T09:21:44.452Z,45.83
2018-06-30T09:22:44.470Z,45.42
2018-06-30T09:23:44.477Z,44.98
2018-06-30T09:24:44.456Z,44.94
2018-06-30T09:25:44.489Z,44.91
2018-06-30T09:26:44.493Z,45.05
2018-06-30T09:27:44.490Z,44.75
2018-06-30T09:28:44.478Z,45.38
2018-06-30T09:29:44.587Z,45.21
2018-06-30T09:30:44.499Z,44.66
2018-06-30T09:31:44.472Z,44.96
2018-06-30T09:32:44.519Z,45.27
2018-06-30T09:33:44.462Z,44.94
2018-06-30T09:34:44.510Z,44.84
2018-06-30T09:35:44.496Z,44.78
2018-06-30T09:36:44.473Z,44.84
2018-06-30T09:37:44.470Z,44.47
2018-06-30T09:38:44.516Z,44.77
2018-06-30T09:39:44.488Z,44.34
2018-06-30T09:40:44.549Z,44.81
2018-06-30T09:41:44.587Z,44.05
2018-06-30T09:42:44.570Z,44.41
2018-06-30T09:43:44.512Z,44.33
2018-06-30T09:44:44.562Z,44
2018-06-30T09:45:44.481Z,44.21
2018-06-30T09:46:44.781Z,43.97
2018-06-30T09:47:44.590Z,43.49
2018-06-30T09:48:44.639Z,43.47
2018-06-30T09:49:44.676Z,41.39
2018-06-30T09:50:44.600Z,42.16
2018-06-30T09:51:44.862Z,43.21
2018-06-30T09:52:44.615Z,42.76
2018-06-30T09:53:44.550Z,43.28
2018-06-30T09:54:44.668Z,43.58
2018-06-30T09:55:44.742Z,43.41
2018-06-30T09:56:45.725Z,43.82
2018-06-30T09:57:44.703Z,43.63
2018-06-30T09:58:44.706Z,43.88
2018-06-30T09:59:44.515Z,43.78
2018-06-30T10:00:44.734Z,43.93
2018-06-30T10:01:44.737Z,43.3
2018-06-30T10:02:44.723Z,43.54
2018-06-30T10:03:44.728Z,43.2
2018-06-30T10:04:44.750Z,42.77
2018-06-30T10:05:44.757Z,42.52
2018-06-30T10:06:44.767Z,42.44
2018-06-30T10:07:44.777Z,42.44
2018-06-30T10:08:44.766Z,42.71
2018-06-30T10:09:44.527Z,43.17
2018-06-30T10:10:44.776Z,43.29
2018-06-30T10:11:44.551Z,42.77
2018-06-30T10:12:44.822Z,42.31
2018-06-30T10:13:44.803Z,42.17
2018-06-30T10:14:44.976Z,42.64
2018-06-30T10:15:44.558Z,42.46
2018-06-30T10:16:44.813Z,42.14
2018-06-30T10:17:44.818Z,41.83
2018-06-30T10:18:44.804Z,42.21
2018-06-30T10:19:44.851Z,42.54
2018-06-30T10:20:44.897Z,42.29
2018-06-30T10:21:44.558Z,42.12
2018-06-30T10:22:45.030Z,42.39
2018-06-30T10:23:44.838Z,41.74
2018-06-30T10:24:44.694Z,42.04
2018-06-30T10:25:46.871Z,41.86
2018-06-30T10:26:44.645Z,41.36
2018-06-30T10:27:44.653Z,41
2018-06-30T10:28:44.891Z,41.66
2018-06-30T10:29:44.905Z,41.25
2018-06-30T10:30:44.587Z,40.92
2018-06-30T10:31:44.594Z,41.15
2018-06-30T10:32:44.551Z,40.71
2018-06-30T10:33:44.557Z,41.17
2018-06-30T10:34:44.563Z,40.99
2018-06-30T10:35:44.605Z,40.83
2018-06-30T10:36:44.572Z,41.01
2018-06-30T10:37:45.440Z,41.05
2018-06-30T10:38:44.613Z,40.61
2018-06-30T10:39:44.740Z,40.71
2018-06-30T10:40:44.642Z,40.34
2018-06-30T10:41:44.650Z,41.16
2018-06-30T10:42:44.659Z,40.86
2018-06-30T10:43:44.667Z,40.48
2018-06-30T10:44:44.775Z,40.64
2018-06-30T10:45:44.780Z,40.26
2018-06-30T10:46:44.699Z,40.26
2018-06-30T10:47:44.693Z,40.11
2018-06-30T10:48:44.621Z,40.07
2018-06-30T10:49:44.705Z,40.75
2018-06-30T10:50:44.821Z,39.87
2018-06-30T10:51:44.720Z,40.34
2018-06-30T10:52:44.829Z,40.29
2018-06-30T10:53:44.582Z,40.28
2018-06-30T10:54:44.741Z,40.26
2018-06-30T10:55:45.706Z,40.37
2018-06-30T10:56:44.637Z,40.52
2018-06-30T10:57:44.603Z,40.48
2018-06-30T10:58:44.769Z,40.56
2018-06-30T10:59:44.747Z,39.92
2018-06-30T11:00:44.639Z,40.71
2018-06-30T11:01:44.793Z,40.89
2018-06-30T11:02:44.799Z,40.46
2018-06-30T11:03:44.840Z,40.12
2018-06-30T11:04:44.708Z,39.95
2018-06-30T11:05:44.747Z,40.27
2018-06-30T11:06:44.633Z,39.96
2018-06-30T11:07:45.139Z,39.71
2018-06-30T11:08:44.841Z,40.04
2018-06-30T11:09:44.684Z,40.18
2018-06-30T11:10:44.752Z,39.98
2018-06-30T11:11:44.614Z,40.41
2018-06-30T11:12:44.735Z,39.51
2018-06-30T11:13:44.774Z,40.04
2018-06-30T11:14:44.663Z,39.87
2018-06-30T11:15:44.685Z,39.95
2018-06-30T11:16:44.690Z,39.66
2018-06-30T11:17:44.725Z,39.39
2018-06-30T11:18:44.690Z,38.99
2018-06-30T11:19:44.827Z,39.83
2018-06-30T11:20:44.623Z,39.15
2018-06-30T11:21:44.622Z,38.69
2018-06-30T11:22:44.836Z,38.45
2018-06-30T11:23:44.744Z,38.85
2018-06-30T11:24:44.750Z,38.58
2018-06-30T11:25:44.770Z,38.39
2018-06-30T11:26:44.672Z,38.54
2018-06-30T11:27:44.724Z,38.54
2018-06-30T11:28:44.784Z,38.76
2018-06-30T11:29:44.810Z,38.28
2018-06-30T11:30:44.661Z,38.24
2018-06-30T11:31:44.666Z,38.92
2018-06-30T11:32:44.701Z,38.35
2018-06-30T11:33:44.737Z,38.59
2018-06-30T11:34:44.659Z,38.25
2018-06-30T11:35:44.643Z,37.72
2018-06-30T11:36:44.638Z,37.64
2018-06-30T11:37:44.703Z,38.06
2018-06-30T11:38:44.630Z,37.98
2018-06-30T11:39:44.618Z,38.16
2018-06-30T11:40:44.836Z,38.25
2018-06-30T11:41:44.793Z,38.03
2018-06-30T11:42:44.628Z,37.68
2018-06-30T11:43:44.799Z,37.9
2018-06-30T11:44:44.647Z,37.95
2018-06-30T11:45:44.642Z,38.09
2018-06-30T11:46:44.801Z,38.04
2018-06-30T11:47:44.808Z,38.04
2018-06-30T11:48:44.672Z,37.77
2018-06-30T11:49:44.649Z,37.41
2018-06-30T11:50:44.729Z,37.92
2018-06-30T11:51:44.690Z,38.21
2018-06-30T11:52:44.708Z,37.76
2018-06-30T11:53:44.707Z,37.14
2018-06-30T11:54:44.688Z,36.9
2018-06-30T11:55:44.773Z,37.55
2018-06-30T11:56:44.772Z,38.2
2018-06-30T11:57:44.776Z,38.14
2018-06-30T11:58:44.925Z,38.33
2018-06-30T11:59:44.751Z,37.34
2018-06-30T12:00:44.661Z,37.63
2018-06-30T12:01:46.757Z,37.58
2018-06-30T12:02:44.810Z,37.56
2018-06-30T12:03:44.682Z,37.21
2018-06-30T12:04:44.766Z,37.1
2018-06-30T12:05:44.725Z,36.75
2018-06-30T12:06:44.739Z,37.26
2018-06-30T12:07:44.857Z,36.6
2018-06-30T12:08:44.780Z,36.69
2018-06-30T12:09:44.769Z,36.48
2018-06-30T12:10:44.874Z,36.46
2018-06-30T12:11:44.783Z,37.06
2018-06-30T12:12:44.791Z,37.35
2018-06-30T12:13:44.783Z,37.54
2018-06-30T12:14:44.708Z,37.13
2018-06-30T12:15:44.727Z,36.55
2018-06-30T12:16:44.928Z,36.75
2018-06-30T12:17:44.809Z,37.43
2018-06-30T12:18:44.676Z,37.11
2018-06-30T12:19:44.828Z,36.87
2018-06-30T12:20:44.745Z,36.68
2018-06-30T12:21:44.880Z,36.7
2018-06-30T12:22:44.858Z,36.24
2018-06-30T12:23:44.735Z,36.51
2018-06-30T12:24:44.695Z,36.45
2018-06-30T12:25:45.183Z,36.3
2018-06-30T12:26:44.916Z,36.29
2018-06-30T12:27:44.744Z,36.21
2018-06-30T12:28:45.401Z,35.91
2018-06-30T12:29:44.714Z,35.62
2018-06-30T12:30:44.779Z,36.11
2018-06-30T12:31:44.857Z,35.79
2018-06-30T12:32:44.713Z,36.27
2018-06-30T12:33:44.765Z,36.34
2018-06-30T12:34:44.752Z,36.52
2018-06-30T12:35:44.720Z,36.74
2018-06-30T12:36:44.886Z,36.07
2018-06-30T12:37:44.779Z,35.9
2018-06-30T12:38:45.083Z,35.94
2018-06-30T12:39:44.731Z,36.05
2018-06-30T12:40:45.591Z,36.15
2018-06-30T12:41:44.785Z,36.13
2018-06-30T12:42:44.768Z,36.35
2018-06-30T12:43:45.493Z,36.65
2018-06-30T12:44:44.742Z,36.3
2018-06-30T12:45:44.952Z,36.88
2018-06-30T12:46:45.529Z,36.22
2018-06-30T12:47:44.932Z,36.46
2018-06-30T12:48:44.743Z,36.56
2018-06-30T12:49:44.759Z,36.73
2018-06-30T12:50:44.756Z,36.1
2018-06-30T12:51:44.755Z,35.7
2018-06-30T12:52:44.718Z,35.99
2018-06-30T12:53:44.718Z,36.47
2018-06-30T12:54:45.063Z,35.85
2018-06-30T12:55:44.817Z,35.5